Airfield :







YOU CAN JOIN US ON...

 
LOGIN :

Register | Disclaimer

   EN    FR    IT 

 









Legend :    VFR   Marginal VFR   IFR   Intensive IFR   Very Intensive IFR
Visi :
Ceiling :
>= 8 km
>= 3000ft
5 to 8 km
1000 to 3000 ft
1500m to 5 km
500 to 1000 ft
800 to 1500m
200 to 500 ft
< 800m
< 200 ft
Symbols :   Thunderstorms  Fog  Heavy snow  Heavy precipitations  Wind > 20 kt






- Airport Elevation : 175 ft
- IATA code : YLC


CYLC - Kimmirut

CURRENT METAR :
  • 231600Z 23006KT 210V270 15SM OVC014 M02/M05 A3012 RMK ST8 SLP207

EXPIRED METARs :
  • 231500Z 22006KT 15SM OVC014 M02/M05 A3013 RMK ST8 SLP211
  • 231400Z 21004KT 180V250 15SM OVC012 M02/M05 A3013 RMK ST8 SLP211
  • 231300Z 14003KT 110V230 15SM OVC013 M03/M06 A3014 RMK ST8 SLP214
  • 231200Z 23003KT 200V270 15SM BKN012 OVC015 M03/M05 A3015 RMK ST6SC2 SLP215

TAF N/A
CZUL FIR / North America



MET'MAP, your aeronautical weather chart ! - Copyright ORBIFLY December 2007 - Disclaimer

ORBIFLY MET'MAP TEAM :

Programming & Development : Alexandra Zaïnal
Original concept : Baudouin d'Aumeries
Technical & hardware support : Manuel Goepfert
Assistance : Marc-Olivier Méhu




SOURCES & CREDITS :

   NOAA